PWSweather.com
Personal Weather Stations
Station Observations
TOULON7
Slangenbeek, HengeloNL 7559KW

SlangenbeekHengeloNL 7559KW

Lat: 52.29626465, Lon: 6.8055501

Elevation: 45

Station Type: TFA Nexus + WS7000

http://www.vannwnhzn.nl/PV_Meteo.html#06

Latest ConditionsUpdated 5:05:00 PM GMT+01:01 Saturday, Nov 17, 2018
Currently Today's Max Today's Min Today's Average
Temperature 42.4°F5.8°C 52.5°F11.4°C 32.7°F0.4°C 39.8°F4.3°C
Dew Point 36.1°F2.3°C 39.9°F4.4°C 30.1°F-1.1°C 34.8°F1.6°C
Winds 2.0 mph NE3.2 kmh NE 3.0 mph -4.8 kmh - - 1.2 mph 1.9 kmh
Wind Gusts 2.0 mph3.2 kmh 9.0 mph14.5 kmh - -
Humidity 78% 92% 62% 83%
Pressure 30.50 in1032.8 mb 30.52 in1033.5 mb 30.44 in1030.8 mb -
Hour Temp Dew Point Humidity Winds Wind Gusts Pressure Precip Precip Rate Daily Precip Total
05:05 PM 42.4°F5.8°C 36.1°F2.3°C 78% 2.0 mph NE3.2 kmh NE 2.0 mph3.2 kmh 30.50 in1032.8 mb 0.00 in0.0 mm 0.00 in0.0 mm 0.00 in0.0 mm
04:55 PM 42.6°F5.9°C 35.9°F2.2°C 77% 1.0 mph N1.6 kmh N 2.0 mph3.2 kmh 30.49 in1032.5 mb 0.00 in0.0 mm 0.00 in0.0 mm 0.00 in0.0 mm
04:45 PM 43.0°F6.1°C 35.9°F2.2°C 76% 2.0 mph NNE3.2 kmh NNE 5.0 mph8.0 kmh 30.49 in1032.5 mb 0.00 in0.0 mm 0.00 in0.0 mm 0.00 in0.0 mm
04:35 PM 43.2°F6.2°C 36.1°F2.3°C 76% 1.0 mph NE1.6 kmh NE 2.0 mph3.2 kmh 30.49 in1032.5 mb 0.00 in0.0 mm 0.00 in0.0 mm 0.00 in0.0 mm
04:25 PM 43.7°F6.5°C 36.3°F2.4°C 75% 2.0 mph NNE3.2 kmh NNE 3.0 mph4.8 kmh 30.49 in1032.5 mb 0.00 in0.0 mm 0.00 in0.0 mm 0.00 in0.0 mm
04:15 PM 43.9°F6.6°C 36.5°F2.5°C 75% 2.0 mph ENE3.2 kmh ENE 1.0 mph1.6 kmh 30.49 in1032.5 mb 0.00 in0.0 mm 0.00 in0.0 mm 0.00 in0.0 mm
04:05 PM 44.1°F6.7°C 36.3°F2.4°C 74% 2.0 mph NNE3.2 kmh NNE 1.0 mph1.6 kmh 30.49 in1032.5 mb 0.00 in0.0 mm 0.00 in0.0 mm 0.00 in0.0 mm
03:55 PM 44.4°F6.9°C 36.7°F2.6°C 74% 1.0 mph NE1.6 kmh NE 2.0 mph3.2 kmh 30.49 in1032.5 mb 0.00 in0.0 mm 0.00 in0.0 mm 0.00 in0.0 mm
03:45 PM 44.8°F7.1°C 36.7°F2.6°C 73% 2.0 mph N3.2 kmh N 3.0 mph4.8 kmh 30.49 in1032.5 mb 0.00 in0.0 mm 0.00 in0.0 mm 0.00 in0.0 mm
03:35 PM 45.1°F7.3°C 36.7°F2.6°C 72% 1.0 mph N1.6 kmh N 2.0 mph3.2 kmh 30.49 in1032.5 mb 0.00 in0.0 mm 0.00 in0.0 mm 0.00 in0.0 mm
03:25 PM 45.7°F7.6°C 36.8°F2.7°C 71% 2.0 mph ENE3.2 kmh ENE 4.0 mph6.4 kmh 30.49 in1032.5 mb 0.00 in0.0 mm 0.00 in0.0 mm 0.00 in0.0 mm
03:15 PM 46.2°F7.9°C 37.3°F2.9°C 71% 2.0 mph NE3.2 kmh NE 2.0 mph3.2 kmh 30.49 in1032.5 mb 0.00 in0.0 mm 0.00 in0.0 mm 0.00 in0.0 mm
03:05 PM 46.9°F8.3°C 37.7°F3.2°C 70% 3.0 mph NE4.8 kmh NE 4.0 mph6.4 kmh 30.49 in1032.5 mb 0.00 in0.0 mm 0.00 in0.0 mm 0.00 in0.0 mm
02:55 PM 47.8°F8.8°C 37.8°F3.2°C 68% 1.0 mph NE1.6 kmh NE 2.0 mph3.2 kmh 30.50 in1032.8 mb 0.00 in0.0 mm 0.00 in0.0 mm 0.00 in0.0 mm
02:45 PM 49.5°F9.7°C 37.8°F3.2°C 64% 2.0 mph NE3.2 kmh NE 1.0 mph1.6 kmh 30.50 in1032.8 mb 0.00 in0.0 mm 0.00 in0.0 mm 0.00 in0.0 mm
02:35 PM 50.5°F10.3°C 38.0°F3.3°C 62% 2.0 mph NE3.2 kmh NE 2.0 mph3.2 kmh 30.50 in1032.8 mb 0.00 in0.0 mm 0.00 in0.0 mm 0.00 in0.0 mm
02:25 PM 51.3°F10.7°C 38.7°F3.7°C 62% 2.0 mph NE3.2 kmh NE 3.0 mph4.8 kmh 30.50 in1032.8 mb 0.00 in0.0 mm 0.00 in0.0 mm 0.00 in0.0 mm
02:15 PM 51.1°F10.6°C 38.5°F3.6°C 62% 2.0 mph N3.2 kmh N 2.0 mph3.2 kmh 30.50 in1032.8 mb 0.00 in0.0 mm 0.00 in0.0 mm 0.00 in0.0 mm
02:05 PM 51.3°F10.7°C 38.7°F3.7°C 62% 3.0 mph N4.8 kmh N 6.0 mph9.7 kmh 30.50 in1032.8 mb 0.00 in0.0 mm 0.00 in0.0 mm 0.00 in0.0 mm
01:55 PM 52.3°F11.3°C 39.7°F4.3°C 62% 1.0 mph ENE1.6 kmh ENE 1.0 mph1.6 kmh 30.50 in1032.8 mb 0.00 in0.0 mm 0.00 in0.0 mm 0.00 in0.0 mm
01:45 PM 52.0°F11.1°C 39.4°F4.1°C 62% 2.0 mph NE3.2 kmh NE 4.0 mph6.4 kmh 30.50 in1032.8 mb 0.00 in0.0 mm 0.00 in0.0 mm 0.00 in0.0 mm
01:35 PM 52.5°F11.4°C 39.9°F4.4°C 62% 1.0 mph NNE1.6 kmh NNE 4.0 mph6.4 kmh 30.50 in1032.8 mb 0.00 in0.0 mm 0.00 in0.0 mm 0.00 in0.0 mm
01:25 PM 52.0°F11.1°C 39.8°F4.3°C 63% 2.0 mph ENE3.2 kmh ENE 1.0 mph1.6 kmh 30.50 in1032.8 mb 0.00 in0.0 mm 0.00 in0.0 mm 0.00 in0.0 mm
01:15 PM 51.6°F10.9°C 39.8°F4.3°C 64% 2.0 mph NE3.2 kmh NE 2.0 mph3.2 kmh 30.50 in1032.8 mb 0.00 in0.0 mm 0.00 in0.0 mm 0.00 in0.0 mm
01:05 PM 50.9°F10.5°C 39.9°F4.4°C 66% 2.0 mph NE3.2 kmh NE 4.0 mph6.4 kmh 30.51 in1033.2 mb 0.00 in0.0 mm 0.00 in0.0 mm 0.00 in0.0 mm
12:55 PM 49.8°F9.9°C 39.7°F4.3°C 68% 2.0 mph NE3.2 kmh NE 3.0 mph4.8 kmh 30.51 in1033.2 mb 0.00 in0.0 mm 0.00 in0.0 mm 0.00 in0.0 mm
12:45 PM 48.0°F8.9°C 39.1°F3.9°C 71% 3.0 mph NE4.8 kmh NE 5.0 mph8.0 kmh 30.50 in1032.8 mb 0.00 in0.0 mm 0.00 in0.0 mm 0.00 in0.0 mm
12:35 PM 48.0°F8.9°C 39.1°F3.9°C 71% 1.0 mph NE1.6 kmh NE 2.0 mph3.2 kmh 30.50 in1032.8 mb 0.00 in0.0 mm 0.00 in0.0 mm 0.00 in0.0 mm
12:25 PM 46.9°F8.3°C 38.4°F3.6°C 72% 2.0 mph NE3.2 kmh NE 2.0 mph3.2 kmh 30.51 in1033.2 mb 0.00 in0.0 mm 0.00 in0.0 mm 0.00 in0.0 mm
12:15 PM 47.3°F8.5°C 39.1°F3.9°C 73% 1.0 mph NNE1.6 kmh NNE 2.0 mph3.2 kmh 30.51 in1033.2 mb 0.00 in0.0 mm 0.00 in0.0 mm 0.00 in0.0 mm
12:05 PM 45.9°F7.7°C 38.4°F3.6°C 75% 3.0 mph SW4.8 kmh SW 9.0 mph14.5 kmh 30.51 in1033.2 mb 0.00 in0.0 mm 0.00 in0.0 mm 0.00 in0.0 mm
11:55 AM 44.8°F7.1°C 38.0°F3.3°C 77% 2.0 mph SE3.2 kmh SE 2.0 mph3.2 kmh 30.51 in1033.2 mb 0.00 in0.0 mm 0.00 in0.0 mm 0.00 in0.0 mm
11:45 AM 43.7°F6.5°C 37.6°F3.1°C 79% 2.0 mph ESE3.2 kmh ESE 2.0 mph3.2 kmh 30.51 in1033.2 mb 0.00 in0.0 mm 0.00 in0.0 mm 0.00 in0.0 mm
11:35 AM 42.8°F6.0°C 37.4°F3.0°C 81% 2.0 mph E3.2 kmh E 2.0 mph3.2 kmh 30.52 in1033.5 mb 0.00 in0.0 mm 0.00 in0.0 mm 0.00 in0.0 mm
11:25 AM 41.9°F5.5°C 36.8°F2.7°C 82% 3.0 mph SE4.8 kmh SE 2.0 mph3.2 kmh 30.52 in1033.5 mb 0.00 in0.0 mm 0.00 in0.0 mm 0.00 in0.0 mm
11:15 AM 41.4°F5.2°C 36.6°F2.6°C 83% 1.0 mph E1.6 kmh E 1.0 mph1.6 kmh 30.52 in1033.5 mb 0.00 in0.0 mm 0.00 in0.0 mm 0.00 in0.0 mm
11:05 AM 40.5°F4.7°C 36.0°F2.2°C 84% 2.0 mph NE3.2 kmh NE 2.0 mph3.2 kmh 30.52 in1033.5 mb 0.00 in0.0 mm 0.00 in0.0 mm 0.00 in0.0 mm
10:55 AM 40.3°F4.6°C 36.1°F2.3°C 85% 1.0 mph NE1.6 kmh NE 3.0 mph4.8 kmh 30.51 in1033.2 mb 0.00 in0.0 mm 0.00 in0.0 mm 0.00 in0.0 mm
10:45 AM 39.7°F4.3°C 35.9°F2.2°C 86% 2.0 mph ENE3.2 kmh ENE 1.0 mph1.6 kmh 30.51 in1033.2 mb 0.00 in0.0 mm 0.00 in0.0 mm 0.00 in0.0 mm
10:35 AM 39.4°F4.1°C 35.5°F1.9°C 86% 1.0 mph NE1.6 kmh NE 4.0 mph6.4 kmh 30.51 in1033.2 mb 0.00 in0.0 mm 0.00 in0.0 mm 0.00 in0.0 mm
10:25 AM 38.7°F3.7°C 35.4°F1.9°C 88% 2.0 mph NNE3.2 kmh NNE 2.0 mph3.2 kmh 30.50 in1032.8 mb 0.00 in0.0 mm 0.00 in0.0 mm 0.00 in0.0 mm
10:15 AM 38.3°F3.5°C 35.1°F1.7°C 88% 1.0 mph NNE1.6 kmh NNE 3.0 mph4.8 kmh 30.50 in1032.8 mb 0.00 in0.0 mm 0.00 in0.0 mm 0.00 in0.0 mm
10:05 AM 37.6°F3.1°C 34.6°F1.4°C 89% 2.0 mph NE3.2 kmh NE 2.0 mph3.2 kmh 30.51 in1033.2 mb 0.00 in0.0 mm 0.00 in0.0 mm 0.00 in0.0 mm
09:55 AM 37.2°F2.9°C 34.6°F1.4°C 90% 2.0 mph ENE3.2 kmh ENE 2.0 mph3.2 kmh 30.50 in1032.8 mb 0.00 in0.0 mm 0.00 in0.0 mm 0.00 in0.0 mm
09:45 AM 36.5°F2.5°C 34.1°F1.2°C 91% 2.0 mph NE3.2 kmh NE 3.0 mph4.8 kmh 30.50 in1032.8 mb 0.00 in0.0 mm 0.00 in0.0 mm 0.00 in0.0 mm
09:35 AM 36.0°F2.2°C 33.9°F1.1°C 92% 1.0 mph NE1.6 kmh NE 3.0 mph4.8 kmh 30.49 in1032.5 mb 0.00 in0.0 mm 0.00 in0.0 mm 0.00 in0.0 mm
09:25 AM 35.2°F1.8°C 33.1°F0.6°C 92% 1.0 mph NE1.6 kmh NE 4.0 mph6.4 kmh 30.49 in1032.5 mb 0.00 in0.0 mm 0.00 in0.0 mm 0.00 in0.0 mm
09:15 AM 34.7°F1.5°C 32.6°F0.3°C 92% 1.0 mph ENE1.6 kmh ENE -- 30.49 in1032.5 mb 0.00 in0.0 mm 0.00 in0.0 mm 0.00 in0.0 mm
09:05 AM 34.3°F1.3°C 32.3°F0.2°C 92% 2.0 mph NE3.2 kmh NE 2.0 mph3.2 kmh 30.49 in1032.5 mb 0.00 in0.0 mm 0.00 in0.0 mm 0.00 in0.0 mm
08:55 AM 34.0°F1.1°C 31.9°F-0.1°C 92% 1.0 mph NE1.6 kmh NE 3.0 mph4.8 kmh 30.49 in1032.5 mb 0.00 in0.0 mm 0.00 in0.0 mm 0.00 in0.0 mm
08:45 AM 34.0°F1.1°C 31.9°F-0.1°C 92% 1.0 mph NNE1.6 kmh NNE 2.0 mph3.2 kmh 30.49 in1032.5 mb 0.00 in0.0 mm 0.00 in0.0 mm 0.00 in0.0 mm
08:35 AM 34.0°F1.1°C 31.9°F-0.1°C 92% 1.0 mph NE1.6 kmh NE 2.0 mph3.2 kmh 30.48 in1032.2 mb 0.00 in0.0 mm 0.00 in0.0 mm 0.00 in0.0 mm
08:25 AM 33.8°F1.0°C 31.7°F-0.2°C 92% 2.0 mph NNE3.2 kmh NNE 4.0 mph6.4 kmh 30.48 in1032.2 mb 0.00 in0.0 mm 0.00 in0.0 mm 0.00 in0.0 mm
08:15 AM 33.8°F1.0°C 31.7°F-0.2°C 92% 1.0 mph NNE1.6 kmh NNE 2.0 mph3.2 kmh 30.48 in1032.2 mb 0.00 in0.0 mm 0.00 in0.0 mm 0.00 in0.0 mm
08:05 AM 33.8°F1.0°C 31.7°F-0.2°C 92% 2.0 mph NE3.2 kmh NE 4.0 mph6.4 kmh 30.48 in1032.2 mb 0.00 in0.0 mm 0.00 in0.0 mm 0.00 in0.0 mm
07:55 AM 33.8°F1.0°C 31.7°F-0.2°C 92% 1.0 mph NNE1.6 kmh NNE 1.0 mph1.6 kmh 30.48 in1032.2 mb 0.00 in0.0 mm 0.00 in0.0 mm 0.00 in0.0 mm
07:45 AM 34.0°F1.1°C 31.9°F-0.1°C 92% 1.0 mph NE1.6 kmh NE 2.0 mph3.2 kmh 30.48 in1032.2 mb 0.00 in0.0 mm 0.00 in0.0 mm 0.00 in0.0 mm
07:35 AM 34.0°F1.1°C 31.9°F-0.1°C 92% 1.0 mph NE1.6 kmh NE -- 30.47 in1031.8 mb 0.00 in0.0 mm 0.00 in0.0 mm 0.00 in0.0 mm
07:25 AM 34.0°F1.1°C 31.9°F-0.1°C 92% 1.0 mph NE1.6 kmh NE 2.0 mph3.2 kmh 30.47 in1031.8 mb 0.00 in0.0 mm 0.00 in0.0 mm 0.00 in0.0 mm
07:15 AM 34.0°F1.1°C 31.9°F-0.1°C 92% 1.0 mph N1.6 kmh N 1.0 mph1.6 kmh 30.47 in1031.8 mb 0.00 in0.0 mm 0.00 in0.0 mm 0.00 in0.0 mm
07:05 AM 34.0°F1.1°C 31.9°F-0.1°C 92% 2.0 mph NE3.2 kmh NE 2.0 mph3.2 kmh 30.47 in1031.8 mb 0.00 in0.0 mm 0.00 in0.0 mm 0.00 in0.0 mm
06:55 AM 34.0°F1.1°C 31.9°F-0.1°C 92% 1.0 mph NNE1.6 kmh NNE 1.0 mph1.6 kmh 30.46 in1031.5 mb 0.00 in0.0 mm 0.00 in0.0 mm 0.00 in0.0 mm
06:45 AM 33.8°F1.0°C 31.7°F-0.2°C 92% 2.0 mph NE3.2 kmh NE 3.0 mph4.8 kmh 30.46 in1031.5 mb 0.00 in0.0 mm 0.00 in0.0 mm 0.00 in0.0 mm
06:35 AM 33.8°F1.0°C 31.7°F-0.2°C 92% 1.0 mph NE1.6 kmh NE 1.0 mph1.6 kmh 30.46 in1031.5 mb 0.00 in0.0 mm 0.00 in0.0 mm 0.00 in0.0 mm
06:25 AM 33.4°F0.8°C 31.4°F-0.3°C 92% 2.0 mph NE3.2 kmh NE 2.0 mph3.2 kmh 30.46 in1031.5 mb 0.00 in0.0 mm 0.00 in0.0 mm 0.00 in0.0 mm
06:15 AM 33.4°F0.8°C 31.4°F-0.3°C 92% 1.0 mph N1.6 kmh N 1.0 mph1.6 kmh 30.46 in1031.5 mb 0.00 in0.0 mm 0.00 in0.0 mm 0.00 in0.0 mm
06:05 AM 33.4°F0.8°C 31.4°F-0.3°C 92% 1.0 mph NNE1.6 kmh NNE 1.0 mph1.6 kmh 30.46 in1031.5 mb 0.00 in0.0 mm 0.00 in0.0 mm 0.00 in0.0 mm
05:55 AM 33.4°F0.8°C 31.4°F-0.3°C 92% Calm Calm 1.0 mph1.6 kmh 30.46 in1031.5 mb 0.00 in0.0 mm 0.00 in0.0 mm 0.00 in0.0 mm
05:45 AM 33.4°F0.8°C 31.4°F-0.3°C 92% 1.0 mph NE1.6 kmh NE 2.0 mph3.2 kmh 30.46 in1031.5 mb 0.00 in0.0 mm 0.00 in0.0 mm 0.00 in0.0 mm
05:35 AM 33.3°F0.7°C 31.2°F-0.4°C 92% 1.0 mph NE1.6 kmh NE 2.0 mph3.2 kmh 30.46 in1031.5 mb 0.00 in0.0 mm 0.00 in0.0 mm 0.00 in0.0 mm
05:25 AM 32.9°F0.5°C 30.6°F-0.8°C 91% Calm Calm -- 30.46 in1031.5 mb 0.00 in0.0 mm 0.00 in0.0 mm 0.00 in0.0 mm
05:15 AM 32.7°F0.4°C 30.4°F-0.9°C 91% Calm Calm -- 30.46 in1031.5 mb 0.00 in0.0 mm 0.00 in0.0 mm 0.00 in0.0 mm
05:05 AM 32.7°F0.4°C 30.1°F-1.1°C 90% Calm Calm -- 30.46 in1031.5 mb 0.00 in0.0 mm 0.00 in0.0 mm 0.00 in0.0 mm
04:55 AM 33.1°F0.6°C 30.2°F-1.0°C 89% Calm Calm -- 30.46 in1031.5 mb 0.00 in0.0 mm 0.00 in0.0 mm 0.00 in0.0 mm
04:45 AM 33.4°F0.8°C 30.5°F-0.8°C 89% Calm Calm -- 30.46 in1031.5 mb 0.00 in0.0 mm 0.00 in0.0 mm 0.00 in0.0 mm
04:35 AM 34.0°F1.1°C 31.1°F-0.5°C 89% Calm Calm -- 30.45 in1031.2 mb 0.00 in0.0 mm 0.00 in0.0 mm 0.00 in0.0 mm
04:25 AM 34.5°F1.4°C 31.6°F-0.2°C 89% Calm Calm -- 30.46 in1031.5 mb 0.00 in0.0 mm 0.00 in0.0 mm 0.00 in0.0 mm
04:15 AM 35.1°F1.7°C 31.9°F-0.1°C 88% Calm Calm -- 30.45 in1031.2 mb 0.00 in0.0 mm 0.00 in0.0 mm 0.00 in0.0 mm
04:05 AM 35.6°F2.0°C 32.7°F0.4°C 89% Calm Calm -- 30.45 in1031.2 mb 0.00 in0.0 mm 0.00 in0.0 mm 0.00 in0.0 mm
03:55 AM 36.1°F2.3°C 33.2°F0.7°C 89% Calm Calm 1.0 mph1.6 kmh 30.45 in1031.2 mb 0.00 in0.0 mm 0.00 in0.0 mm 0.00 in0.0 mm
03:45 AM 36.5°F2.5°C 33.6°F0.9°C 89% Calm Calm 2.0 mph3.2 kmh 30.45 in1031.2 mb 0.00 in0.0 mm 0.00 in0.0 mm 0.00 in0.0 mm
03:35 AM 36.7°F2.6°C 33.7°F0.9°C 89% Calm Calm -- 30.45 in1031.2 mb 0.00 in0.0 mm 0.00 in0.0 mm 0.00 in0.0 mm
03:25 AM 36.9°F2.7°C 33.9°F1.1°C 89% Calm Calm -- 30.45 in1031.2 mb 0.00 in0.0 mm 0.00 in0.0 mm 0.00 in0.0 mm
03:15 AM 36.9°F2.7°C 33.9°F1.1°C 89% Calm Calm 1.0 mph1.6 kmh 30.45 in1031.2 mb 0.00 in0.0 mm 0.00 in0.0 mm 0.00 in0.0 mm
03:05 AM 37.2°F2.9°C 34.0°F1.1°C 88% 1.0 mph NNE1.6 kmh NNE 2.0 mph3.2 kmh 30.45 in1031.2 mb 0.00 in0.0 mm 0.00 in0.0 mm 0.00 in0.0 mm
02:55 AM 37.2°F2.9°C 34.3°F1.3°C 89% Calm Calm 1.0 mph1.6 kmh 30.45 in1031.2 mb 0.00 in0.0 mm 0.00 in0.0 mm 0.00 in0.0 mm
02:45 AM 37.2°F2.9°C 34.0°F1.1°C 88% 1.0 mph NNE1.6 kmh NNE 1.0 mph1.6 kmh 30.45 in1031.2 mb 0.00 in0.0 mm 0.00 in0.0 mm 0.00 in0.0 mm
02:35 AM 37.2°F2.9°C 34.0°F1.1°C 88% Calm Calm -- 30.45 in1031.2 mb 0.00 in0.0 mm 0.00 in0.0 mm 0.00 in0.0 mm
02:25 AM 37.6°F3.1°C 34.1°F1.2°C 87% Calm Calm -- 30.45 in1031.2 mb 0.00 in0.0 mm 0.00 in0.0 mm 0.00 in0.0 mm
02:15 AM 37.8°F3.2°C 34.2°F1.2°C 87% Calm Calm -- 30.45 in1031.2 mb 0.00 in0.0 mm 0.00 in0.0 mm 0.00 in0.0 mm
02:05 AM 37.8°F3.2°C 34.2°F1.2°C 87% Calm Calm 2.0 mph3.2 kmh 30.45 in1031.2 mb 0.00 in0.0 mm 0.00 in0.0 mm 0.00 in0.0 mm
01:55 AM 38.1°F3.4°C 34.3°F1.3°C 86% Calm Calm 1.0 mph1.6 kmh 30.45 in1031.2 mb 0.00 in0.0 mm 0.00 in0.0 mm 0.00 in0.0 mm
01:45 AM 38.3°F3.5°C 34.5°F1.4°C 86% Calm Calm 1.0 mph1.6 kmh 30.45 in1031.2 mb 0.00 in0.0 mm 0.00 in0.0 mm 0.00 in0.0 mm
01:35 AM 38.5°F3.6°C 34.7°F1.5°C 86% Calm Calm -- 30.45 in1031.2 mb 0.00 in0.0 mm 0.00 in0.0 mm 0.00 in0.0 mm
01:25 AM 38.7°F3.7°C 34.8°F1.6°C 86% Calm Calm -- 30.45 in1031.2 mb 0.00 in0.0 mm 0.00 in0.0 mm 0.00 in0.0 mm
01:15 AM 38.8°F3.8°C 34.7°F1.5°C 85% 1.0 mph ESE1.6 kmh ESE -- 30.45 in1031.2 mb 0.00 in0.0 mm 0.00 in0.0 mm 0.00 in0.0 mm
01:05 AM 39.0°F3.9°C 34.9°F1.6°C 85% Calm Calm 5.0 mph8.0 kmh 30.45 in1031.2 mb 0.00 in0.0 mm 0.00 in0.0 mm 0.00 in0.0 mm
12:55 AM 39.0°F3.9°C 34.9°F1.6°C 85% Calm Calm 1.0 mph1.6 kmh 30.45 in1031.2 mb 0.00 in0.0 mm 0.00 in0.0 mm 0.00 in0.0 mm
12:45 AM 39.2°F4.0°C 35.1°F1.7°C 85% 1.0 mph E1.6 kmh E 1.0 mph1.6 kmh 30.45 in1031.2 mb 0.00 in0.0 mm 0.00 in0.0 mm 0.00 in0.0 mm
12:35 AM 39.4°F4.1°C 35.2°F1.8°C 85% 1.0 mph E1.6 kmh E 1.0 mph1.6 kmh 30.44 in1030.8 mb 0.00 in0.0 mm 0.00 in0.0 mm 0.00 in0.0 mm
12:25 AM 39.6°F4.2°C 35.1°F1.7°C 84% 1.0 mph NNE1.6 kmh NNE -- 30.44 in1030.8 mb 0.00 in0.0 mm 0.00 in0.0 mm 0.00 in0.0 mm
12:15 AM 39.7°F4.3°C 35.3°F1.8°C 84% 1.0 mph ENE1.6 kmh ENE 3.0 mph4.8 kmh 30.44 in1030.8 mb 0.00 in0.0 mm 0.00 in0.0 mm 0.00 in0.0 mm
12:05 AM 39.7°F4.3°C 35.3°F1.8°C 84% 1.0 mph E1.6 kmh E 1.0 mph1.6 kmh 30.44 in1030.8 mb 0.00 in0.0 mm 0.00 in0.0 mm 0.00 in0.0 mm